Time;durP1;ratioP1;P1;durP2;ratioP2;P2;SDS_P1;SDS_P2;PMS_P1;PMS_P2;Temp;Humidity;BMP_temperature;BMP_pressure;BME280_temperature;BME280_humidity;BME280_pressure;Samples;Min_cycle;Max_cycle;Signal;HPM_P1;HPM_P2
2023/12/23 00:01:48;;;;;;;2.92;0.77;;;;;;;;;;5053994;28;20033;-58
2023/12/23 00:04:20;;;;;;;1.17;0.32;;;;;;;;;;5054026;28;20079;-58
2023/12/23 00:06:46;;;;;;;1.95;0.55;;;;;;;;;;5054397;28;20029;-58
2023/12/23 00:09:15;;;;;;;3.35;0.88;;;;;;;;;;5054269;28;20025;-59
2023/12/23 00:11:41;;;;;;;1.65;0.80;;;;;;;;;;5054496;28;20037;-59
2023/12/23 00:14:07;;;;;;;3.00;0.90;;;;;;;;;;5054305;28;20040;-58
2023/12/23 00:16:33;;;;;;;2.10;0.68;;;;;;;;;;5054381;28;20443;-59
2023/12/23 00:18:58;;;;;;;2.38;1.00;;;;;;;;;;5054620;28;20081;-59
2023/12/23 00:21:24;;;;;;;1.10;0.52;;;;;;;;;;5054138;28;20032;-59
2023/12/23 00:23:50;;;;;;;3.55;0.93;;;;;;;;;;5054179;28;20029;-59
2023/12/23 00:26:16;;;;;;;1.50;0.57;;;;;;;;;;5053887;28;20036;-60
2023/12/23 00:28:42;;;;;;;2.17;0.47;;;;;;;;;;5053861;28;20021;-59
2023/12/23 00:31:08;;;;;;;0.90;0.47;;;;;;;;;;5053775;28;20029;-60
2023/12/23 00:33:34;;;;;;;1.40;0.50;;;;;;;;;;5053702;28;20037;-60
2023/12/23 00:36:00;;;;;;;5.13;0.77;;;;;;;;;;5053962;28;20112;-59
2023/12/23 00:38:26;;;;;;;1.48;0.77;;;;;;;;;;5052731;28;20029;-59
2023/12/23 00:40:52;;;;;;;0.80;0.40;;;;;;;;;;5053666;28;20033;-57
2023/12/23 00:43:18;;;;;;;1.95;0.77;;;;;;;;;;5053492;28;20033;-58
2023/12/23 00:45:44;;;;;;;4.32;1.10;;;;;;;;;;5053681;28;20037;-58
2023/12/23 00:48:11;;;;;;;2.42;1.15;;;;;;;;;;5054037;28;20027;-57
2023/12/23 00:50:37;;;;;;;1.60;0.77;;;;;;;;;;5053576;28;20040;-58
2023/12/23 00:53:03;;;;;;;1.73;0.60;;;;;;;;;;5053941;28;20467;-58
2023/12/23 00:55:29;;;;;;;1.58;0.93;;;;;;;;;;5053337;28;20106;-57
2023/12/23 00:57:55;;;;;;;1.50;0.55;;;;;;;;;;5053728;28;20471;-57
2023/12/23 01:00:21;;;;;;;2.15;0.52;;;;;;;;;;5053520;28;20044;-57
2023/12/23 01:02:47;;;;;;;4.22;1.17;;;;;;;;;;5053745;28;20152;-57
2023/12/23 01:05:13;;;;;;;5.05;1.10;;;;;;;;;;5053603;28;20446;-58
2023/12/23 01:07:39;;;;;;;3.53;0.88;;;;;;;;;;5053323;28;20051;-57
2023/12/23 01:10:05;;;;;;;3.15;0.75;;;;;;;;;;5053556;28;20034;-57
2023/12/23 01:12:31;;;;;;;4.38;1.02;;;;;;;;;;5053450;28;20446;-57
2023/12/23 01:14:57;;;;;;;3.03;0.80;;;;;;;;;;5051329;28;20056;-57
2023/12/23 01:17:23;;;;;;;2.67;0.57;;;;;;;;;;5053832;28;20021;-57
2023/12/23 01:19:49;;;;;;;0.70;0.30;;;;;;;;;;5053425;28;20025;-57
2023/12/23 01:22:15;;;;;;;2.00;0.57;;;;;;;;;;5053132;28;20150;-57
2023/12/23 01:24:40;;;;;;;1.60;0.50;;;;;;;;;;5053674;28;20025;-57
2023/12/23 01:27:06;;;;;;;2.83;0.65;;;;;;;;;;5053358;28;20492;-58
2023/12/23 01:29:32;;;;;;;1.42;0.57;;;;;;;;;;5053887;28;20108;-57
2023/12/23 01:31:58;;;;;;;3.40;0.60;;;;;;;;;;5053578;28;20068;-58
2023/12/23 01:34:24;;;;;;;0.88;0.40;;;;;;;;;;5057295;28;20028;-57
2023/12/23 01:36:50;;;;;;;1.05;0.30;;;;;;;;;;5057389;28;20348;-57
2023/12/23 01:39:16;;;;;;;1.00;0.43;;;;;;;;;;5057420;28;20028;-57
2023/12/23 01:41:42;;;;;;;1.23;0.38;;;;;;;;;;5056945;28;20045;-57
2023/12/23 01:44:08;;;;;;;4.45;0.75;;;;;;;;;;5055763;28;20032;-57
2023/12/23 01:46:34;;;;;;;2.08;0.75;;;;;;;;;;5057735;28;20056;-57
2023/12/23 01:49:01;;;;;;;2.67;0.60;;;;;;;;;;5057154;28;20032;-57
2023/12/23 01:51:28;;;;;;;2.30;0.80;;;;;;;;;;5056819;28;20032;-57
2023/12/23 01:53:57;;;;;;;2.13;0.73;;;;;;;;;;5056767;28;20027;-57
2023/12/23 01:56:23;;;;;;;1.08;0.60;;;;;;;;;;5056747;28;20045;-57
2023/12/23 01:58:49;;;;;;;2.63;1.00;;;;;;;;;;5056631;28;20414;-57
2023/12/23 02:01:15;;;;;;;4.13;1.58;;;;;;;;;;5056628;28;20528;-57
2023/12/23 02:03:41;;;;;;;1.65;0.80;;;;;;;;;;5056545;28;20086;-57
2023/12/23 02:06:08;;;;;;;2.63;0.82;;;;;;;;;;5056845;28;20037;-57
2023/12/23 02:08:34;;;;;;;1.10;0.50;;;;;;;;;;5056891;28;20025;-57
2023/12/23 02:11:06;;;;;;;5.70;1.35;;;;;;;;;;5056469;28;20114;-57
2023/12/23 02:13:41;;;;;;;5.55;1.05;;;;;;;;;;5056180;28;20025;-57
2023/12/23 02:16:07;;;;;;;3.72;1.27;;;;;;;;;;5057209;28;20033;-57
2023/12/23 02:18:33;;;;;;;3.63;1.20;;;;;;;;;;5056860;28;20032;-57
2023/12/23 02:20:59;;;;;;;2.80;0.93;;;;;;;;;;5055834;28;20102;-57
2023/12/23 02:23:25;;;;;;;2.42;0.95;;;;;;;;;;5056216;28;20029;-58
2023/12/23 02:25:55;;;;;;;2.22;0.70;;;;;;;;;;5056503;28;20017;-57
2023/12/23 02:28:21;;;;;;;3.38;1.25;;;;;;;;;;5056999;28;20033;-57
2023/12/23 02:30:48;;;;;;;1.00;0.55;;;;;;;;;;5055790;28;20025;-57
2023/12/23 02:33:14;;;;;;;2.00;0.77;;;;;;;;;;5055035;28;20037;-57
2023/12/23 02:35:40;;;;;;;1.30;0.63;;;;;;;;;;5055852;28;20344;-57
2023/12/23 02:38:06;;;;;;;2.22;0.80;;;;;;;;;;5056562;28;20025;-57
2023/12/23 02:40:32;;;;;;;1.23;0.73;;;;;;;;;;5056353;28;20036;-59
2023/12/23 02:42:58;;;;;;;3.45;0.65;;;;;;;;;;5056089;28;20029;-59
2023/12/23 02:45:23;;;;;;;1.48;0.73;;;;;;;;;;5055750;28;20623;-59
2023/12/23 02:47:49;;;;;;;1.45;0.77;;;;;;;;;;5055842;28;20029;-59
2023/12/23 02:50:16;;;;;;;1.63;0.60;;;;;;;;;;5056249;28;20028;-57
2023/12/23 02:52:41;;;;;;;1.77;0.60;;;;;;;;;;5055668;28;20032;-57
2023/12/23 02:55:08;;;;;;;1.27;0.57;;;;;;;;;;5055403;28;20045;-57
2023/12/23 02:57:34;;;;;;;6.05;0.85;;;;;;;;;;5055886;28;20025;-58
2023/12/23 02:59:59;;;;;;;2.28;0.50;;;;;;;;;;5053207;28;20162;-57
2023/12/23 03:02:25;;;;;;;2.83;0.45;;;;;;;;;;5056024;28;20033;-57
2023/12/23 03:04:51;;;;;;;0.60;0.30;;;;;;;;;;5055427;28;20128;-57
2023/12/23 03:07:17;;;;;;;2.13;0.55;;;;;;;;;;5056009;28;20029;-57
2023/12/23 03:09:43;;;;;;;1.95;0.80;;;;;;;;;;5055043;28;20086;-57
2023/12/23 03:12:09;;;;;;;2.83;1.02;;;;;;;;;;5055295;28;20100;-57
2023/12/23 03:14:35;;;;;;;0.80;0.40;;;;;;;;;;5055318;28;20427;-57
2023/12/23 03:17:01;;;;;;;4.15;0.95;;;;;;;;;;5054848;28;20028;-57
2023/12/23 03:19:27;;;;;;;1.85;0.88;;;;;;;;;;5055078;28;20082;-57
2023/12/23 03:21:53;;;;;;;4.50;1.13;;;;;;;;;;5055171;28;20462;-57
2023/12/23 03:24:19;;;;;;;2.85;0.80;;;;;;;;;;5055099;28;20033;-57
2023/12/23 03:26:45;;;;;;;3.42;0.93;;;;;;;;;;5055245;28;20366;-57
2023/12/23 03:29:11;;;;;;;2.38;0.55;;;;;;;;;;5054113;28;20036;-57
2023/12/23 03:31:37;;;;;;;5.82;1.17;;;;;;;;;;5054936;28;20025;-57
2023/12/23 03:34:03;;;;;;;2.22;0.80;;;;;;;;;;5055689;28;20037;-57
2023/12/23 03:36:29;;;;;;;1.63;0.90;;;;;;;;;;5055350;28;20075;-57
2023/12/23 03:38:55;;;;;;;2.45;0.68;;;;;;;;;;5055087;28;20032;-57
2023/12/23 03:41:21;;;;;;;1.98;0.80;;;;;;;;;;5055177;28;20120;-57
2023/12/23 03:43:47;;;;;;;1.00;0.40;;;;;;;;;;5055237;28;20040;-57
2023/12/23 03:46:13;;;;;;;2.35;0.80;;;;;;;;;;5054372;28;20037;-56
2023/12/23 03:48:39;;;;;;;3.17;1.08;;;;;;;;;;5055293;28;20354;-57
2023/12/23 03:51:05;;;;;;;5.13;1.05;;;;;;;;;;5054854;28;20104;-56
2023/12/23 03:53:31;;;;;;;0.68;0.25;;;;;;;;;;5054545;28;20104;-58
2023/12/23 03:55:57;;;;;;;1.23;0.52;;;;;;;;;;5054271;28;20049;-58
2023/12/23 03:58:23;;;;;;;3.60;0.60;;;;;;;;;;5054777;28;20048;-57
2023/12/23 04:00:49;;;;;;;2.83;0.50;;;;;;;;;;5054344;28;20040;-57
2023/12/23 04:03:15;;;;;;;3.00;0.70;;;;;;;;;;5054616;28;20119;-57
2023/12/23 04:05:40;;;;;;;1.48;0.55;;;;;;;;;;5054027;28;20497;-57
2023/12/23 04:08:06;;;;;;;2.42;0.85;;;;;;;;;;5054506;28;20110;-58
2023/12/23 04:10:32;;;;;;;1.52;0.75;;;;;;;;;;5054758;28;20394;-57
2023/12/23 04:12:58;;;;;;;1.55;0.65;;;;;;;;;;5054078;28;20550;-57
2023/12/23 04:15:24;;;;;;;3.13;0.88;;;;;;;;;;5054079;28;20120;-57
2023/12/23 04:17:50;;;;;;;4.07;1.00;;;;;;;;;;5054685;28;20120;-55
2023/12/23 04:20:16;;;;;;;0.85;0.60;;;;;;;;;;5054008;28;20427;-57
2023/12/23 04:22:47;;;;;;;1.17;0.63;;;;;;;;;;5054094;28;20116;-57
2023/12/23 04:25:13;;;;;;;3.03;1.30;;;;;;;;;;5054638;28;20036;-57
2023/12/23 04:27:39;;;;;;;2.85;0.98;;;;;;;;;;5054525;28;20029;-57
2023/12/23 04:30:05;;;;;;;3.80;1.23;;;;;;;;;;5053969;28;20029;-57
2023/12/23 04:32:31;;;;;;;0.65;0.40;;;;;;;;;;5053932;28;20021;-57
2023/12/23 04:34:59;;;;;;;1.27;0.73;;;;;;;;;;5054151;28;20032;-57
2023/12/23 04:37:25;;;;;;;2.28;1.00;;;;;;;;;;5053857;28;20025;-57
2023/12/23 04:39:51;;;;;;;1.75;0.82;;;;;;;;;;5053738;28;20029;-57
2023/12/23 04:42:17;;;;;;;0.85;0.40;;;;;;;;;;5053677;28;20056;-57
2023/12/23 04:44:43;;;;;;;1.52;0.70;;;;;;;;;;5053802;28;20021;-57
2023/12/23 04:47:09;;;;;;;3.47;0.57;;;;;;;;;;5054553;28;20025;-57
2023/12/23 04:49:35;;;;;;;2.22;0.50;;;;;;;;;;5053904;28;20017;-57
2023/12/23 04:52:01;;;;;;;0.93;0.45;;;;;;;;;;5053642;28;20029;-58
2023/12/23 04:54:27;;;;;;;1.17;0.50;;;;;;;;;;5053351;28;20021;-57
2023/12/23 04:56:53;;;;;;;1.10;0.40;;;;;;;;;;5053689;28;20497;-57
2023/12/23 04:59:19;;;;;;;1.52;0.60;;;;;;;;;;5053571;28;20025;-56
2023/12/23 05:01:45;;;;;;;2.63;0.90;;;;;;;;;;5053249;28;20108;-57
2023/12/23 05:04:11;;;;;;;0.95;0.52;;;;;;;;;;5053546;28;20162;-58
2023/12/23 05:06:37;;;;;;;2.10;0.43;;;;;;;;;;5053323;28;20025;-57
2023/12/23 05:09:05;;;;;;;2.03;0.80;;;;;;;;;;5057556;28;20481;-57
2023/12/23 05:11:31;;;;;;;2.42;0.65;;;;;;;;;;5057619;28;20075;-57
2023/12/23 05:13:57;;;;;;;1.15;0.30;;;;;;;;;;5055581;28;20048;-57
2023/12/23 05:16:25;;;;;;;0.55;0.40;;;;;;;;;;5056195;28;20021;-57
2023/12/23 05:18:51;;;;;;;0.75;0.40;;;;;;;;;;5058316;28;20067;-57
2023/12/23 05:21:16;;;;;;;0.32;0.20;;;;;;;;;;5057846;28;20056;-57
2023/12/23 05:23:42;;;;;;;1.40;0.70;;;;;;;;;;5057417;28;20028;-57
2023/12/23 05:26:09;;;;;;;2.30;0.63;;;;;;;;;;5057901;28;20056;-57
2023/12/23 05:28:34;;;;;;;0.75;0.50;;;;;;;;;;5058184;28;20450;-57
2023/12/23 05:31:00;;;;;;;0.32;0.20;;;;;;;;;;5057573;28;20068;-57
2023/12/23 05:33:26;;;;;;;0.80;0.13;;;;;;;;;;5057248;28;20370;-57
2023/12/23 05:35:52;;;;;;;0.70;0.30;;;;;;;;;;5056893;28;20133;-57
2023/12/23 05:38:18;;;;;;;0.88;0.32;;;;;;;;;;5057623;28;20482;-57
2023/12/23 05:40:44;;;;;;;0.28;0.20;;;;;;;;;;5056708;28;20490;-58
2023/12/23 05:43:10;;;;;;;0.93;0.20;;;;;;;;;;5057809;28;20060;-57
2023/12/23 05:45:37;;;;;;;0.65;0.32;;;;;;;;;;5057041;28;20482;-57
2023/12/23 05:48:03;;;;;;;0.50;0.20;;;;;;;;;;5057763;28;20087;-60
2023/12/23 05:50:29;;;;;;;0.17;0.10;;;;;;;;;;5056915;28;20078;-57
2023/12/23 05:52:55;;;;;;;0.50;0.20;;;;;;;;;;5055360;28;20025;-57
2023/12/23 05:55:20;;;;;;;0.30;0.10;;;;;;;;;;5056741;28;20429;-58
2023/12/23 05:57:46;;;;;;;0.10;0.10;;;;;;;;;;5056743;28;20407;-57
2023/12/23 06:00:13;;;;;;;1.60;0.28;;;;;;;;;;5056527;28;20029;-57
2023/12/23 06:02:38;;;;;;;0.10;0.10;;;;;;;;;;5057012;28;20037;-58
2023/12/23 06:05:05;;;;;;;0.10;0.10;;;;;;;;;;5056822;28;20017;-58
2023/12/23 06:07:31;;;;;;;0.90;0.10;;;;;;;;;;5056898;28;20074;-58
2023/12/23 06:09:57;;;;;;;0.63;0.20;;;;;;;;;;5056511;28;20108;-57
2023/12/23 06:12:23;;;;;;;0.17;0.10;;;;;;;;;;5056363;28;20025;-51
2023/12/23 06:14:50;;;;;;;0.25;0.17;;;;;;;;;;5056447;28;20025;-56
2023/12/23 06:17:16;;;;;;;0.30;0.20;;;;;;;;;;5057309;28;20025;-54
2023/12/23 06:19:42;;;;;;;0.52;0.10;;;;;;;;;;5056106;28;20447;-55
2023/12/23 06:22:08;;;;;;;0.25;0.15;;;;;;;;;;5056038;28;20083;-56
2023/12/23 06:24:34;;;;;;;1.00;0.20;;;;;;;;;;5056892;28;20029;-55
2023/12/23 06:27:00;;;;;;;0.00;0.00;;;;;;;;;;5056656;28;20451;-56
2023/12/23 06:29:26;;;;;;;0.08;0.00;;;;;;;;;;5056204;28;20123;-54
2023/12/23 06:31:51;;;;;;;0.10;0.10;;;;;;;;;;5056773;28;20029;-53
2023/12/23 06:34:17;;;;;;;0.10;0.10;;;;;;;;;;5056337;28;20462;-55
2023/12/23 06:36:43;;;;;;;0.77;0.40;;;;;;;;;;5054968;28;20033;-54
2023/12/23 06:39:09;;;;;;;0.40;0.20;;;;;;;;;;5056938;28;20025;-54
2023/12/23 06:41:35;;;;;;;0.10;0.10;;;;;;;;;;5056624;28;20033;-54
2023/12/23 06:44:01;;;;;;;0.10;0.08;;;;;;;;;;5056143;28;20025;-56
2023/12/23 06:46:28;;;;;;;0.47;0.15;;;;;;;;;;5055942;28;20036;-54
2023/12/23 06:48:54;;;;;;;0.40;0.30;;;;;;;;;;5056729;28;20029;-56
2023/12/23 06:51:19;;;;;;;0.00;0.00;;;;;;;;;;5055814;28;20351;-55
2023/12/23 06:53:47;;;;;;;2.17;0.15;;;;;;;;;;5056097;28;20398;-53
2023/12/23 06:56:13;;;;;;;0.28;0.10;;;;;;;;;;5055599;28;20099;-56
2023/12/23 06:58:39;;;;;;;0.47;0.30;;;;;;;;;;5056113;28;20033;-54
2023/12/23 07:01:05;;;;;;;0.10;0.10;;;;;;;;;;5055814;28;20406;-56
2023/12/23 07:03:31;;;;;;;0.43;0.10;;;;;;;;;;5056153;28;20029;-55
2023/12/23 07:05:57;;;;;;;0.60;0.25;;;;;;;;;;5056046;28;20478;-54
2023/12/23 07:08:23;;;;;;;0.20;0.10;;;;;;;;;;5056105;28;20391;-56
2023/12/23 07:10:50;;;;;;;0.32;0.13;;;;;;;;;;5055460;28;20061;-54
2023/12/23 07:13:17;;;;;;;0.20;0.00;;;;;;;;;;5056196;28;20029;-56
2023/12/23 07:15:42;;;;;;;0.55;0.22;;;;;;;;;;5055359;28;20163;-56
2023/12/23 07:18:10;;;;;;;0.25;0.10;;;;;;;;;;5055892;28;20063;-56
2023/12/23 07:20:35;;;;;;;0.40;0.20;;;;;;;;;;5053921;28;20481;-56
2023/12/23 07:23:01;;;;;;;0.10;0.10;;;;;;;;;;5055289;28;20126;-55
2023/12/23 07:25:27;;;;;;;0.55;0.15;;;;;;;;;;5055237;28;20029;-53
2023/12/23 07:27:53;;;;;;;0.52;0.20;;;;;;;;;;5055643;28;20126;-53
2023/12/23 07:30:19;;;;;;;0.10;0.10;;;;;;;;;;5054366;28;20040;-55
2023/12/23 07:32:45;;;;;;;0.28;0.10;;;;;;;;;;5055081;28;20048;-56
2023/12/23 07:35:11;;;;;;;0.32;0.20;;;;;;;;;;5055276;28;20029;-56
2023/12/23 07:37:37;;;;;;;2.92;0.35;;;;;;;;;;5055285;28;20021;-56
2023/12/23 07:40:04;;;;;;;0.52;0.25;;;;;;;;;;5054855;28;20035;-57
2023/12/23 07:42:30;;;;;;;0.00;0.00;;;;;;;;;;5055388;28;20029;-55
2023/12/23 07:44:56;;;;;;;0.80;0.30;;;;;;;;;;5055034;28;20104;-54
2023/12/23 07:47:22;;;;;;;0.10;0.10;;;;;;;;;;5055087;28;20423;-56
2023/12/23 07:49:48;;;;;;;0.40;0.20;;;;;;;;;;5054788;28;20025;-57
2023/12/23 07:52:14;;;;;;;1.15;0.22;;;;;;;;;;5054603;28;20028;-57
2023/12/23 07:54:40;;;;;;;0.00;0.00;;;;;;;;;;5053586;28;20128;-57
2023/12/23 07:57:06;;;;;;;2.40;0.10;;;;;;;;;;5054410;28;20108;-58
2023/12/23 07:59:32;;;;;;;0.10;0.00;;;;;;;;;;5054467;28;20029;-57
2023/12/23 08:01:59;;;;;;;0.55;0.20;;;;;;;;;;5054170;28;20025;-58
2023/12/23 08:04:27;;;;;;;0.22;0.10;;;;;;;;;;5054357;28;20075;-58
2023/12/23 08:06:53;;;;;;;0.17;0.10;;;;;;;;;;5054865;28;20039;-58
2023/12/23 08:09:19;;;;;;;0.10;0.10;;;;;;;;;;5054585;28;20103;-56
2023/12/23 08:11:45;;;;;;;1.02;0.40;;;;;;;;;;5054260;28;20037;-53
2023/12/23 08:14:11;;;;;;;0.17;0.10;;;;;;;;;;5054146;28;20033;-55
2023/12/23 08:16:37;;;;;;;0.00;0.00;;;;;;;;;;5054118;28;20024;-54
2023/12/23 08:19:03;;;;;;;0.20;0.10;;;;;;;;;;5054204;28;20025;-55
2023/12/23 08:21:29;;;;;;;0.30;0.10;;;;;;;;;;5054063;28;20079;-54
2023/12/23 08:23:55;;;;;;;0.90;0.35;;;;;;;;;;5054598;28;20025;-53
2023/12/23 08:26:21;;;;;;;0.35;0.10;;;;;;;;;;5054063;28;20025;-54
2023/12/23 08:28:47;;;;;;;0.55;0.20;;;;;;;;;;5054346;28;20096;-55
2023/12/23 08:31:13;;;;;;;0.28;0.10;;;;;;;;;;5054112;28;20068;-55
2023/12/23 08:33:39;;;;;;;0.28;0.20;;;;;;;;;;5053958;28;20032;-56
2023/12/23 08:36:05;;;;;;;0.30;0.20;;;;;;;;;;5054189;28;20029;-55
2023/12/23 08:38:31;;;;;;;1.42;0.30;;;;;;;;;;5054193;28;20028;-55
2023/12/23 08:40:57;;;;;;;0.30;0.13;;;;;;;;;;5053347;28;20036;-56
2023/12/23 08:43:23;;;;;;;0.40;0.20;;;;;;;;;;5054273;28;20363;-55
2023/12/23 08:45:49;;;;;;;0.80;0.35;;;;;;;;;;5053750;28;20451;-55
2023/12/23 08:48:14;;;;;;;0.10;0.10;;;;;;;;;;5054123;28;20032;-55
2023/12/23 08:50:40;;;;;;;0.30;0.20;;;;;;;;;;5053332;28;20025;-55
2023/12/23 08:53:06;;;;;;;1.20;0.22;;;;;;;;;;5053437;28;20364;-55
2023/12/23 08:55:32;;;;;;;0.50;0.20;;;;;;;;;;5054070;28;20127;-52
2023/12/23 08:58:01;;;;;;;0.30;0.17;;;;;;;;;;5053642;28;20025;-54
2023/12/23 09:00:27;;;;;;;0.65;0.20;;;;;;;;;;5053910;28;20064;-55
2023/12/23 09:02:53;;;;;;;0.00;0.00;;;;;;;;;;5053626;28;20036;-55
2023/12/23 09:05:19;;;;;;;0.52;0.13;;;;;;;;;;5053647;28;20025;-57
2023/12/23 09:07:45;;;;;;;0.10;0.10;;;;;;;;;;5054121;28;20029;-57
2023/12/23 09:10:11;;;;;;;0.40;0.25;;;;;;;;;;5053503;28;20112;-53
2023/12/23 09:12:38;;;;;;;0.08;0.05;;;;;;;;;;5054125;28;20036;-55
2023/12/23 09:15:05;;;;;;;0.20;0.10;;;;;;;;;;5053477;28;20075;-56
2023/12/23 09:17:31;;;;;;;0.20;0.10;;;;;;;;;;5053607;28;20021;-57
2023/12/23 09:19:57;;;;;;;0.43;0.15;;;;;;;;;;5054018;28;20035;-57
2023/12/23 09:22:23;;;;;;;0.20;0.13;;;;;;;;;;5053456;28;20390;-57
2023/12/23 09:24:49;;;;;;;0.00;0.00;;;;;;;;;;5053425;28;20025;-55
2023/12/23 09:27:14;;;;;;;0.05;0.00;;;;;;;;;;5053488;28;20025;-57
2023/12/23 09:29:40;;;;;;;0.10;0.10;;;;;;;;;;5053712;28;20029;-56
2023/12/23 09:32:06;;;;;;;0.30;0.10;;;;;;;;;;5053602;28;20048;-57
2023/12/23 09:34:32;;;;;;;0.00;0.00;;;;;;;;;;5053665;28;20426;-56
2023/12/23 09:37:02;;;;;;;1.55;0.20;;;;;;;;;;5053310;28;20017;-54
2023/12/23 09:39:30;;;;;;;0.70;0.10;;;;;;;;;;5053331;28;20134;-57
2023/12/23 09:41:56;;;;;;;0.17;0.10;;;;;;;;;;5052895;28;20072;-54
2023/12/23 09:44:23;;;;;;;0.10;0.10;;;;;;;;;;5053769;28;20067;-56
2023/12/23 09:46:50;;;;;;;0.00;0.00;;;;;;;;;;5053797;28;20107;-57
2023/12/23 09:49:16;;;;;;;0.15;0.10;;;;;;;;;;5053601;28;20355;-57
2023/12/23 09:51:44;;;;;;;0.10;0.10;;;;;;;;;;5053210;28;20040;-57
2023/12/23 09:54:13;;;;;;;0.10;0.10;;;;;;;;;;5054997;28;20366;-56
2023/12/23 09:56:39;;;;;;;0.10;0.10;;;;;;;;;;5058032;28;20352;-55
2023/12/23 09:59:05;;;;;;;0.10;0.10;;;;;;;;;;5056855;28;20025;-54
2023/12/23 10:01:31;;;;;;;0.28;0.17;;;;;;;;;;5057239;28;20033;-56
2023/12/23 10:04:00;;;;;;;0.00;0.00;;;;;;;;;;5056939;28;20032;-57
2023/12/23 10:06:26;;;;;;;0.17;0.10;;;;;;;;;;5056695;28;20082;-56
2023/12/23 10:08:52;;;;;;;0.05;0.00;;;;;;;;;;5055680;28;20171;-57
2023/12/23 10:11:19;;;;;;;0.10;0.10;;;;;;;;;;5057023;28;20100;-55
2023/12/23 10:13:45;;;;;;;0.03;0.00;;;;;;;;;;5056463;28;20029;-56
2023/12/23 10:16:11;;;;;;;0.50;0.08;;;;;;;;;;5056526;28;20025;-55
2023/12/23 10:18:40;;;;;;;0.08;0.00;;;;;;;;;;5057265;28;20021;-52
2023/12/23 10:21:06;;;;;;;0.80;0.38;;;;;;;;;;5056319;28;20032;-57
2023/12/23 10:23:33;;;;;;;0.43;0.22;;;;;;;;;;5056067;28;20035;-56
2023/12/23 10:25:59;;;;;;;0.00;0.00;;;;;;;;;;5056308;28;20032;-53
2023/12/23 10:28:25;;;;;;;0.08;0.00;;;;;;;;;;5056892;28;20025;-49
2023/12/23 10:30:52;;;;;;;0.15;0.10;;;;;;;;;;5056683;28;20028;-54
2023/12/23 10:33:19;;;;;;;0.10;0.10;;;;;;;;;;5056489;28;20021;-55
2023/12/23 10:35:46;;;;;;;0.17;0.10;;;;;;;;;;5056627;28;20033;-56
2023/12/23 10:38:16;;;;;;;0.55;0.20;;;;;;;;;;5056661;28;20021;-56
2023/12/23 10:40:43;;;;;;;0.63;0.22;;;;;;;;;;5056029;28;20102;-52
2023/12/23 10:43:10;;;;;;;0.10;0.10;;;;;;;;;;5056059;28;20033;-55
2023/12/23 10:45:37;;;;;;;0.38;0.10;;;;;;;;;;5056052;28;20029;-56
2023/12/23 10:48:04;;;;;;;0.32;0.10;;;;;;;;;;5055468;28;20028;-52
2023/12/23 10:50:31;;;;;;;0.00;0.00;;;;;;;;;;5055929;28;20036;-55
2023/12/23 10:52:58;;;;;;;0.10;0.10;;;;;;;;;;5056326;28;20025;-53
2023/12/23 10:55:24;;;;;;;0.10;0.10;;;;;;;;;;5055682;28;20137;-54
2023/12/23 10:57:52;;;;;;;0.17;0.10;;;;;;;;;;5056034;28;20025;-52
2023/12/23 11:00:18;;;;;;;0.30;0.10;;;;;;;;;;5055784;28;20029;-55
2023/12/23 11:02:45;;;;;;;0.25;0.10;;;;;;;;;;5055982;28;20119;-56
2023/12/23 11:05:12;;;;;;;0.20;0.10;;;;;;;;;;5055221;28;20036;-54
2023/12/23 11:07:43;;;;;;;0.17;0.10;;;;;;;;;;5056142;28;20416;-56
2023/12/23 11:10:10;;;;;;;0.22;0.10;;;;;;;;;;5055513;28;20029;-56
2023/12/23 11:12:36;;;;;;;0.30;0.10;;;;;;;;;;5055463;28;20033;-53
2023/12/23 11:15:03;;;;;;;0.10;0.10;;;;;;;;;;5055799;28;20028;-54
2023/12/23 11:17:29;;;;;;;0.00;0.00;;;;;;;;;;5055665;28;20017;-55
2023/12/23 11:19:58;;;;;;;0.22;0.10;;;;;;;;;;5055846;28;20029;-54
2023/12/23 11:22:25;;;;;;;0.93;0.20;;;;;;;;;;5055977;28;20150;-54
2023/12/23 11:24:51;;;;;;;0.22;0.10;;;;;;;;;;5055092;28;20540;-53
2023/12/23 11:27:36;;;;;;;0.88;0.30;;;;;;;;;;5055426;28;20021;-54
2023/12/23 11:30:04;;;;;;;0.75;0.40;;;;;;;;;;5055048;28;20029;-52
2023/12/23 11:32:37;;;;;;;0.22;0.10;;;;;;;;;;5054999;28;20120;-55
2023/12/23 11:35:12;;;;;;;0.30;0.15;;;;;;;;;;5055032;28;20351;-56
2023/12/23 11:37:55;;;;;;;0.38;0.20;;;;;;;;;;5055479;28;20052;-56
2023/12/23 11:40:21;;;;;;;0.50;0.20;;;;;;;;;;5054440;28;20434;-56
2023/12/23 11:42:48;;;;;;;0.40;0.20;;;;;;;;;;5054827;28;20025;-56
2023/12/23 11:45:14;;;;;;;0.20;0.10;;;;;;;;;;5054813;28;20458;-52
2023/12/23 11:47:40;;;;;;;0.17;0.10;;;;;;;;;;5055370;28;20044;-56
2023/12/23 11:50:07;;;;;;;0.45;0.10;;;;;;;;;;5055078;28;20455;-55
2023/12/23 11:52:34;;;;;;;0.30;0.10;;;;;;;;;;5054938;28;20040;-56
2023/12/23 11:55:00;;;;;;;0.38;0.20;;;;;;;;;;5054933;28;20447;-55
2023/12/23 11:57:27;;;;;;;0.22;0.10;;;;;;;;;;5055014;28;20030;-55
2023/12/23 11:59:54;;;;;;;0.13;0.10;;;;;;;;;;5054445;28;20086;-54
2023/12/23 12:02:21;;;;;;;0.20;0.10;;;;;;;;;;5054348;28;20048;-58
2023/12/23 12:04:47;;;;;;;0.17;0.10;;;;;;;;;;5054440;28;20040;-54
2023/12/23 12:07:13;;;;;;;0.10;0.00;;;;;;;;;;5055014;28;20060;-53
2023/12/23 12:09:39;;;;;;;0.17;0.08;;;;;;;;;;5054362;28;20029;-52
2023/12/23 12:12:06;;;;;;;0.40;0.20;;;;;;;;;;5054239;28;20021;-55
2023/12/23 12:14:32;;;;;;;0.00;0.00;;;;;;;;;;5053878;28;20029;-55
2023/12/23 12:16:58;;;;;;;0.10;0.00;;;;;;;;;;5053756;28;20029;-54
2023/12/23 12:19:24;;;;;;;0.15;0.10;;;;;;;;;;5054735;28;20431;-55
2023/12/23 12:21:50;;;;;;;0.45;0.20;;;;;;;;;;5054022;28;20106;-55
2023/12/23 12:24:16;;;;;;;0.40;0.10;;;;;;;;;;5054179;28;20024;-55
2023/12/23 12:26:42;;;;;;;0.98;0.25;;;;;;;;;;5054496;28;20033;-55
2023/12/23 12:29:09;;;;;;;3.85;0.20;;;;;;;;;;5054070;28;20071;-52
2023/12/23 12:31:37;;;;;;;0.30;0.10;;;;;;;;;;5054245;28;20025;-55
2023/12/23 12:34:02;;;;;;;0.88;0.40;;;;;;;;;;5054601;28;20052;-54
2023/12/23 12:36:28;;;;;;;0.80;0.47;;;;;;;;;;5054041;28;20028;-55
2023/12/23 12:38:54;;;;;;;0.52;0.10;;;;;;;;;;5054167;28;20151;-55
2023/12/23 12:41:20;;;;;;;0.08;0.05;;;;;;;;;;5054362;28;20115;-52
2023/12/23 12:43:46;;;;;;;0.47;0.13;;;;;;;;;;5053946;28;20550;-54
2023/12/23 12:46:15;;;;;;;0.68;0.25;;;;;;;;;;5053713;28;20056;-55
2023/12/23 12:48:43;;;;;;;0.10;0.00;;;;;;;;;;5053949;28;20386;-53
2023/12/23 12:51:09;;;;;;;0.32;0.20;;;;;;;;;;5053588;28;20024;-56
2023/12/23 12:53:37;;;;;;;0.40;0.20;;;;;;;;;;5053572;28;20048;-55
2023/12/23 12:56:09;;;;;;;0.28;0.10;;;;;;;;;;5054485;28;20053;-55
2023/12/23 12:58:35;;;;;;;0.05;0.05;;;;;;;;;;5053777;28;20370;-55
2023/12/23 13:01:02;;;;;;;0.28;0.08;;;;;;;;;;5053362;28;20104;-53
2023/12/23 13:03:28;;;;;;;0.10;0.10;;;;;;;;;;5053488;28;20032;-54
2023/12/23 13:05:54;;;;;;;0.08;0.08;;;;;;;;;;5053444;28;20075;-53
2023/12/23 13:08:20;;;;;;;0.28;0.10;;;;;;;;;;5053420;28;20029;-55
2023/12/23 13:10:46;;;;;;;0.00;0.00;;;;;;;;;;5053368;28;20025;-54
2023/12/23 13:13:12;;;;;;;0.10;0.10;;;;;;;;;;5053325;28;20477;-55
2023/12/23 13:15:38;;;;;;;0.95;0.10;;;;;;;;;;5053352;28;20459;-55
2023/12/23 13:18:04;;;;;;;0.15;0.13;;;;;;;;;;5053356;28;20017;-54
2023/12/23 13:20:30;;;;;;;0.13;0.08;;;;;;;;;;5053037;28;20068;-51
2023/12/23 13:22:56;;;;;;;0.65;0.25;;;;;;;;;;5052858;28;20025;-51
2023/12/23 13:25:22;;;;;;;0.52;0.20;;;;;;;;;;5053371;28;20028;-53
2023/12/23 13:27:51;;;;;;;0.43;0.10;;;;;;;;;;5053472;28;20029;-53
2023/12/23 13:30:17;;;;;;;0.15;0.10;;;;;;;;;;5056822;28;20063;-56
2023/12/23 13:32:43;;;;;;;0.70;0.10;;;;;;;;;;5056674;28;20122;-56
2023/12/23 13:35:09;;;;;;;0.20;0.13;;;;;;;;;;5056936;28;20377;-57
2023/12/23 13:37:35;;;;;;;0.30;0.10;;;;;;;;;;5056958;28;20021;-57
2023/12/23 13:40:01;;;;;;;0.00;0.00;;;;;;;;;;5057215;28;20035;-57
2023/12/23 13:42:27;;;;;;;0.65;0.10;;;;;;;;;;5057184;28;20431;-55
2023/12/23 13:44:53;;;;;;;0.45;0.20;;;;;;;;;;5057019;28;20056;-56
2023/12/23 13:47:19;;;;;;;0.30;0.10;;;;;;;;;;5057630;28;20025;-56
2023/12/23 13:49:45;;;;;;;0.63;0.22;;;;;;;;;;5056812;28;20079;-51
2023/12/23 13:52:12;;;;;;;0.73;0.30;;;;;;;;;;5056832;28;20029;-52
2023/12/23 13:54:38;;;;;;;0.30;0.10;;;;;;;;;;5056519;28;20025;-56
2023/12/23 13:57:04;;;;;;;0.13;0.10;;;;;;;;;;5056688;28;20056;-57
2023/12/23 13:59:30;;;;;;;0.35;0.20;;;;;;;;;;5056497;28;20462;-57
2023/12/23 14:01:56;;;;;;;0.05;0.00;;;;;;;;;;5056491;28;20037;-55
2023/12/23 14:04:22;;;;;;;0.17;0.10;;;;;;;;;;5055190;28;20037;-56
2023/12/23 14:06:48;;;;;;;0.25;0.10;;;;;;;;;;5056540;28;20059;-56
2023/12/23 14:09:14;;;;;;;0.00;0.00;;;;;;;;;;5057048;28;20025;-56
2023/12/23 14:11:40;;;;;;;0.00;0.00;;;;;;;;;;5056836;28;20035;-54
2023/12/23 14:14:07;;;;;;;0.22;0.10;;;;;;;;;;5056443;28;20459;-55
2023/12/23 14:16:33;;;;;;;0.60;0.20;;;;;;;;;;5056358;28;20029;-57
2023/12/23 14:18:59;;;;;;;0.35;0.17;;;;;;;;;;5056898;28;20048;-56
2023/12/23 14:21:25;;;;;;;0.13;0.10;;;;;;;;;;5056647;28;20029;-56
2023/12/23 14:23:51;;;;;;;0.52;0.25;;;;;;;;;;5056514;28;20451;-55
2023/12/23 14:26:17;;;;;;;0.10;0.10;;;;;;;;;;5056293;28;20362;-56
2023/12/23 14:28:42;;;;;;;0.30;0.15;;;;;;;;;;5055922;28;20029;-55
2023/12/23 14:31:12;;;;;;;0.10;0.00;;;;;;;;;;5056135;28;20070;-53
2023/12/23 14:33:37;;;;;;;0.10;0.10;;;;;;;;;;5055382;28;20029;-53
2023/12/23 14:36:04;;;;;;;0.15;0.10;;;;;;;;;;5055318;28;20025;-54
2023/12/23 14:38:30;;;;;;;0.05;0.03;;;;;;;;;;5056352;28;20025;-57